Thunder radar more information blitzortung!


Löydät sääaseman tiedot myös:

European Weather Network

Finland Weather Exchange

Weather Underground

AWEKAS



Weather Underground säähistoriasivu

Päivittäin yhteenveto Marraskuu 17, 2017 Yksiköt:  Englantilaiset    Metriset   Molemmat
« Edellinen Päivä
Seuraava Päivä »
Päivittäin Viikoittain Kuukausittain Vuosittain Mukautettu
  Korkea: Matala: Keskiarvo:
Lämpötila: TemperatureC °F 0.1 °F 2.3 °F
Kastepiste: DewpointC °F -0.8 °F 1.6 °F
Kosteus: Humidity % 93 % 94 %
Tuulen nopeus: WindSpeedKMH mph 0.0 mph 4.2 mph
Tuulenpuuska: WindSpeedGustKMH mph - -
Tuuli:- - SSW
Ilmanpaine: PressurehPa in 990.4 in -
Sade: 0.0 in    
Historical Graphs
 
 
Taulukkotiedot Marraskuu 17, 2017
Aika Lämpötila Kastepiste Ilmanpaine Tuuli Tuulen nopeus Tuulenpuuska Kosteus Sademäärä (tunneittain)
TemperatureC °F DewpointC °F PressurehPa in Calm     Humidity % HourlyPrecipMM in
00:00 1.8 °F 1.2 °F 1005.0 in SSW 4.8 mph 14.5 mph 96 % 0.0 in
00:15 1.8 °F 1.1 °F 1005.0 in SSW 3.2 mph 9.7 mph 95 % 0.0 in
00:30 1.8 °F 1.1 °F 1004.6 in SSW 1.6 mph 9.7 mph 95 % 0.0 in
00:45 1.9 °F 1.3 °F 1004.3 in South 3.2 mph 9.7 mph 96 % 0.0 in
01:00 1.9 °F 1.2 °F 1004.3 in South 3.2 mph 11.3 mph 95 % 0.0 in
01:15 1.9 °F 1.2 °F 1003.9 in South 3.2 mph 11.3 mph 95 % 0.0 in
01:30 1.9 °F 1.2 °F 1003.6 in South 4.8 mph 12.9 mph 95 % 0.0 in
01:45 1.9 °F 1.2 °F 1002.9 in SSE 3.2 mph 14.5 mph 95 % 0.0 in
02:00 1.9 °F 1.2 °F 1002.6 in South 4.8 mph 14.5 mph 95 % 0.0 in
02:15 2.0 °F 1.3 °F 1002.3 in South 4.8 mph 14.5 mph 95 % 0.0 in
02:30 2.0 °F 1.3 °F 1001.9 in South 3.2 mph 11.3 mph 95 % 0.0 in
02:45 2.1 °F 1.3 °F 1001.6 in SSW 4.8 mph 16.1 mph 95 % 0.0 in
03:00 2.1 °F 1.4 °F 1001.2 in South 6.4 mph 17.7 mph 95 % 0.0 in
03:15 2.2 °F 1.7 °F 1000.9 in South 4.8 mph 11.3 mph 96 % 0.0 in
03:30 2.3 °F 1.6 °F 1000.6 in South 3.2 mph 12.9 mph 95 % 0.0 in
03:45 2.3 °F 1.6 °F 1000.2 in South 4.8 mph 11.3 mph 95 % 0.0 in
04:00 2.4 °F 1.7 °F 999.9 in South 4.8 mph 11.3 mph 95 % 0.0 in
04:15 2.3 °F 1.6 °F 999.2 in South 4.8 mph 14.5 mph 95 % 0.0 in
04:30 2.3 °F 1.8 °F 998.9 in South 1.6 mph 9.7 mph 96 % 0.0 in
04:45 2.5 °F 1.9 °F 998.5 in South 4.8 mph 12.9 mph 96 % 0.0 in
05:00 2.6 °F 2.0 °F 997.9 in South 4.8 mph 19.3 mph 96 % 0.0 in
05:30 2.8 °F 2.3 °F 997.2 in South 4.8 mph 14.5 mph 97 % 0.0 in
05:45 2.8 °F 2.4 °F 996.5 in South 3.2 mph 12.9 mph 97 % 0.0 in
06:00 2.9 °F 2.5 °F 996.2 in South 3.2 mph 11.3 mph 97 % 0.0 in
06:15 3.0 °F 2.6 °F 995.8 in SSE 3.2 mph 12.9 mph 97 % 0.0 in
06:30 3.1 °F 2.7 °F 995.5 in South 3.2 mph 12.9 mph 97 % 0.0 in
06:45 3.2 °F 2.7 °F 995.1 in South 1.6 mph 11.3 mph 97 % 0.0 in
07:00 3.2 °F 2.8 °F 994.8 in South 3.2 mph 9.7 mph 97 % 0.0 in
07:15 3.3 °F 2.9 °F 994.1 in South 1.6 mph 9.7 mph 97 % 0.0 in
07:30 3.4 °F 3.0 °F 993.5 in South 1.6 mph 8.0 mph 97 % 0.0 in
07:45 3.4 °F 3.2 °F 993.1 in SSE 1.6 mph 8.0 mph 98 % 0.0 in
08:00 3.6 °F 3.1 °F 993.1 in SSW 1.6 mph 8.0 mph 97 % 0.0 in
08:15 3.7 °F 3.2 °F 992.8 in SSE 1.6 mph 8.0 mph 97 % 0.0 in
08:30 3.8 °F 3.5 °F 992.4 in SSW 3.2 mph 12.9 mph 98 % 0.0 in
08:45 3.9 °F 3.6 °F 992.1 in South 1.6 mph 9.7 mph 98 % 0.0 in
09:00 3.9 °F 3.7 °F 991.8 in South 1.6 mph 9.7 mph 98 % 0.0 in
09:15 4.0 °F 3.7 °F 991.4 in South 3.2 mph 12.9 mph 98 % 0.0 in
09:30 4.1 °F 3.8 °F 991.1 in South 3.2 mph 14.5 mph 98 % 0.0 in
09:45 4.2 °F 3.9 °F 991.1 in South 3.2 mph 11.3 mph 98 % 0.0 in
10:00 4.3 °F 4.0 °F 990.7 in SSW 4.8 mph 11.3 mph 98 % 0.0 in
10:30 4.4 °F 4.0 °F 990.4 in SSW 8.0 mph 24.1 mph 97 % 0.0 in
10:45 4.4 °F 4.0 °F 990.4 in SSW 6.4 mph 17.7 mph 97 % 0.0 in
11:00 4.4 °F 3.8 °F 990.4 in SSW 8.0 mph 17.7 mph 96 % 0.0 in
11:15 4.3 °F 3.8 °F 990.4 in SSW 8.0 mph 20.9 mph 96 % 0.0 in
11:30 4.1 °F 3.5 °F 990.4 in SSW 8.0 mph 20.9 mph 96 % 0.0 in
11:45 3.7 °F 2.9 °F 990.4 in SSW 12.9 mph 25.7 mph 95 % 0.0 in
12:00 3.4 °F 2.9 °F 990.7 in SSW 9.7 mph 19.3 mph 96 % 0.0 in
12:15 3.1 °F 2.3 °F 990.7 in SW 6.4 mph 25.7 mph 95 % 0.0 in
12:30 2.7 °F 1.9 °F 991.1 in SW 6.4 mph 19.3 mph 95 % 0.0 in
12:45 2.4 °F 1.8 °F 991.4 in SSW 4.8 mph 16.1 mph 96 % 0.0 in
13:00 2.2 °F 1.7 °F 991.8 in SSW 6.4 mph 16.1 mph 96 % 0.0 in
13:15 2.2 °F 1.7 °F 992.1 in SW 4.8 mph 17.7 mph 96 % 0.0 in
13:30 2.3 °F 1.7 °F 992.1 in SW 6.4 mph 19.3 mph 96 % 0.0 in
13:45 2.3 °F 1.8 °F 992.4 in SW 8.0 mph 22.5 mph 96 % 0.0 in
14:00 2.2 °F 1.7 °F 992.8 in SW 6.4 mph 16.1 mph 96 % 0.0 in
14:15 2.6 °F 2.2 °F 993.1 in SW 8.0 mph 19.3 mph 97 % 0.0 in
14:30 2.9 °F 2.4 °F 993.1 in SW 8.0 mph 19.3 mph 96 % 0.0 in
14:45 3.1 °F 2.5 °F 993.5 in SW 8.0 mph 22.5 mph 96 % 0.0 in
15:00 3.2 °F 2.4 °F 993.5 in SSW 6.4 mph 16.1 mph 95 % 0.0 in
15:15 3.2 °F 2.3 °F 993.5 in SSW 9.7 mph 20.9 mph 94 % 0.0 in
15:30 2.9 °F 1.9 °F 993.8 in SW 8.0 mph 20.9 mph 93 % 0.0 in
15:45 2.7 °F 1.6 °F 993.8 in SSW 6.4 mph 12.9 mph 93 % 0.0 in
16:00 2.4 °F 1.4 °F 993.8 in SSW 6.4 mph 17.7 mph 93 % 0.0 in
16:15 2.2 °F 1.2 °F 994.1 in SW 4.8 mph 12.9 mph 93 % 0.0 in
16:30 2.1 °F 1.0 °F 994.1 in SSW 4.8 mph 11.3 mph 93 % 0.0 in
16:45 2.0 °F 1.0 °F 994.1 in SSW 4.8 mph 14.5 mph 93 % 0.0 in
17:00 1.8 °F 0.8 °F 994.5 in SW 3.2 mph 12.9 mph 93 % 0.0 in
17:15 1.8 °F 0.8 °F 994.8 in SSW 3.2 mph 11.3 mph 93 % 0.0 in
17:30 1.8 °F 0.8 °F 994.8 in SSW 3.2 mph 9.7 mph 93 % 0.0 in
17:45 1.8 °F 0.8 °F 994.8 in SSW 4.8 mph 9.7 mph 93 % 0.0 in
18:00 1.8 °F 0.8 °F 995.1 in SSW 4.8 mph 12.9 mph 93 % 0.0 in
18:15 1.7 °F 0.7 °F 995.1 in SW 4.8 mph 11.3 mph 93 % 0.0 in
18:30 1.7 °F 0.8 °F 995.1 in SSW 4.8 mph 11.3 mph 94 % 0.0 in
18:45 1.6 °F 0.6 °F 995.1 in SSW 3.2 mph 8.0 mph 93 % 0.0 in
19:00 1.5 °F 0.6 °F 995.1 in SSW 3.2 mph 9.7 mph 94 % 0.0 in
19:15 1.4 °F 0.4 °F 994.8 in SSW 3.2 mph 11.3 mph 93 % 0.0 in
19:30 1.4 °F 0.4 °F 994.8 in SW 4.8 mph 9.7 mph 93 % 0.0 in
19:45 1.3 °F 0.4 °F 994.8 in SW 1.6 mph 9.7 mph 94 % 0.0 in
20:00 1.2 °F 0.3 °F 994.8 in SSW 1.6 mph 9.7 mph 94 % 0.0 in
20:15 1.2 °F 0.2 °F 994.8 in SSW 1.6 mph 6.4 mph 93 % 0.0 in
20:30 0.9 °F 0.1 °F 994.8 in SSW 1.6 mph 8.0 mph 94 % 0.0 in
20:45 0.8 °F -0.1 °F 994.8 in SSW 1.6 mph 6.4 mph 94 % 0.0 in
21:00 0.7 °F -0.2 °F 994.8 in SSW 1.6 mph 9.7 mph 94 % 0.0 in
21:15 0.6 °F -0.3 °F 994.8 in SSW 1.6 mph 9.7 mph 94 % 0.0 in
21:30 0.6 °F -0.1 °F 994.8 in SSW 1.6 mph 9.7 mph 95 % 0.0 in
21:45 0.8 °F 0.1 °F 994.8 in SSW 3.2 mph 11.3 mph 95 % 0.0 in
22:00 0.9 °F 0.1 °F 995.1 in SSW 3.2 mph 9.7 mph 94 % 0.0 in
22:15 0.9 °F 0.1 °F 995.1 in SSW 3.2 mph 9.7 mph 94 % 0.0 in
22:30 0.9 °F 0.1 °F 995.1 in SSW 3.2 mph 9.7 mph 94 % 0.0 in
22:45 0.8 °F 0.0 °F 995.1 in South 1.6 mph 11.3 mph 94 % 0.0 in
23:00 0.6 °F -0.2 °F 995.1 in Calm   3.2 mph 94 % 0.0 in
23:15 0.4 °F -0.3 °F 995.1 in SSW 1.6 mph 11.3 mph 95 % 0.0 in
23:30 0.1 °F -0.8 °F 995.1 in Calm   3.2 mph 94 % 0.0 in
23:45 0.1 °F -0.5 °F 995.1 in SSE 1.6 mph 9.7 mph 96 % 0.0 in
Esan sääasema
Terveisin Weather Underground - 2.75 mb

Alkuperäinen skripti  Jim McMurry - jmcmurry@mwt.net Sovitettu myös templatelle  Wim van der Kuil - Leuven-Template.eu

Laitteet joita käytämme:

Sääasema
Davis VP2

Sääasemaohjelma
Cumulus

Sääaseman tietokone
Asus EeePC

Palveluntarjoaja
Suncomet

Davis VP2

Cumulus

Asus EeePC

Suncomet